Thursday, April 26, 2018, 9:29 AM GMT
Back to Local

CWVU, Brier Island, N. S.

Location: , , Canada Lat: 44.286
Local Time: 9:29 AM GMT ( 9:29 GMT) Lon: -66.347
Time Zone: GMT Elev: 52 ft

Show me the last for .
Show Coded

Time T Td Feel RH Dir Speed Gust Alt SLP Vis Weather Sky Remarks
2018-04-26 07:00 52 51 - 96 130° 33 40 - 29.88 0 Peak wind: 40 mph (35 kts) from 130° at 59 min
1-hr Precip Total: 0.11"
2018-04-26 06:00 52 51 - 96 130° 28 - - 29.91 0 Peak wind: 39 mph (34 kts) from 130° at 01 min
1-hr Precip Total: 0.07"
2018-04-26 05:00 52 51 - 94 140° 32 38 - 29.95 0 Peak wind: 37 mph (33 kts) from 140° at 53 min
1-hr Precip Total: 0.04"
2018-04-26 04:00 53 51 - 93 130° 30 37 - 29.99 0 Peak wind: 36 mph (32 kts) from 120° at 35 min
2018-04-26 03:00 51 50 - 94 120° 18 25 - 30.03 0 Peak wind: 25 mph (22 kts) from 130° at 59 min
1-hr Precip Total: 0.01"
2018-04-26 02:00 51 49 - 94 120° 16 - - 30.07 0 Peak wind: 21 mph (19 kts) from 110° at 05 min
1-hr Precip Total: 0.05"
2018-04-26 01:00 51 49 - 91 110° 17 - - 30.10 0 Peak wind: 23 mph (20 kts) from 120° at 05 min
1-hr Precip Total: 0.01"
2018-04-26 00:00 52 48 - 86 130° 20 - - 30.11 0 Peak wind: 25 mph (22 kts) from 130° at 46 min
2018-04-25 23:00 51 48 - 87 130° 21 - - 30.13 0 Peak wind: 25 mph (22 kts) from 130° at 53 min
2018-04-25 22:00 50 45 45 81 160° 15 - - 30.15 0 Peak wind: 19 mph (17 kts) from 160° at 53 min
2018-04-25 21:00 50 45 44 83 160° 15 - - 30.16 0 Peak wind: 27 mph (24 kts) from 160° at 40 min
2018-04-25 20:00 50 45 43 82 160° 16 23 - 30.17 0 Peak wind: 23 mph (20 kts) from 140° at 51 min
2018-04-25 19:00 51 45 - 80 160° 15 - - 30.19 0 Peak wind: 23 mph (20 kts) from 150° at 08 min
2018-04-25 18:00 50 44 - 79 160° 16 22 - 30.22 0 Peak wind: 21 mph (19 kts) from 160° at 53 min
2018-04-25 17:00 51 45 - 78 160° 13 20 - 30.24 0 Peak wind: 21 mph (19 kts) from 160° at 02 min
2018-04-25 16:00 50 44 - 78 160° 13 - - 30.26 0 None
2018-04-25 15:00 47 42 41 81 160° 15 - - 30.28 0 Peak wind: 19 mph (17 kts) from 150° at 14 min
2018-04-25 14:00 46 42 39 87 150° 16 - - 30.28 0 Peak wind: 20 mph (18 kts) from 150° at 58 min
2018-04-25 13:00 46 42 40 84 150° 16 - - 30.28 0 Peak wind: 19 mph (17 kts) from 160° at 57 min
2018-04-25 12:00 44 42 38 90 150° 13 - - 30.28 0 None
2018-04-25 11:00 42 41 36 95 160° 10 - - 30.28 0 None
2018-04-25 10:00 40 41 33 102 150° 13 - - 30.28 0 None

Support USWX by starting your Amazon purchase here.